createdAt,value
2022-10-17T00:00:06.699Z,81.64
2022-10-17T00:02:32.799Z,81.59
2022-10-17T00:04:58.922Z,81.66
2022-10-17T00:07:25.199Z,81.54
2022-10-17T00:09:51.505Z,81.41
2022-10-17T00:12:17.609Z,81.43
2022-10-17T00:14:43.699Z,81.55
2022-10-17T00:17:09.784Z,81.38
2022-10-17T00:19:35.882Z,81.37
2022-10-17T00:22:01.967Z,81.33
2022-10-17T00:24:28.050Z,81.42
2022-10-17T00:26:54.162Z,81.40
2022-10-17T00:29:20.266Z,81.31
2022-10-17T00:31:46.417Z,81.20
2022-10-17T00:34:12.569Z,81.30
2022-10-17T00:36:38.665Z,81.19
2022-10-17T00:39:04.753Z,81.28
2022-10-17T00:41:30.856Z,81.26
2022-10-17T00:43:56.957Z,81.14
2022-10-17T00:46:23.046Z,81.14
2022-10-17T00:48:49.169Z,80.94
2022-10-17T00:51:15.266Z,81.10
2022-10-17T00:53:41.347Z,81.01
2022-10-17T00:56:07.500Z,81.00
2022-10-17T00:58:33.599Z,80.88
2022-10-17T01:00:59.843Z,81.11
2022-10-17T01:03:26.053Z,80.90
2022-10-17T01:05:52.143Z,80.71
2022-10-17T01:08:18.241Z,80.89
2022-10-17T01:10:44.827Z,80.84
2022-10-17T01:13:10.919Z,80.84
2022-10-17T01:15:37.007Z,80.75
2022-10-17T01:18:03.109Z,80.57
2022-10-17T01:20:29.213Z,80.72
2022-10-17T01:22:55.291Z,80.83
2022-10-17T01:25:21.414Z,80.76
2022-10-17T01:27:47.508Z,80.69
2022-10-17T01:30:13.605Z,80.70
2022-10-17T01:32:39.725Z,80.66
2022-10-17T01:35:05.828Z,80.66
2022-10-17T01:37:31.927Z,80.65
2022-10-17T01:39:58.045Z,80.63
2022-10-17T01:42:24.163Z,80.51
2022-10-17T01:44:50.254Z,80.67
2022-10-17T01:47:16.355Z,80.50
2022-10-17T01:49:42.446Z,80.52
2022-10-17T01:52:08.542Z,80.52
2022-10-17T01:54:34.647Z,80.51
2022-10-17T01:57:00.727Z,80.46
2022-10-17T01:59:26.830Z,80.43
2022-10-17T02:01:53.064Z,80.46
2022-10-17T02:04:19.214Z,80.26
2022-10-17T02:06:45.315Z,80.20
2022-10-17T02:09:11.441Z,80.26
2022-10-17T02:11:37.530Z,80.23
2022-10-17T02:14:03.700Z,80.29
2022-10-17T02:16:30.336Z,80.20
2022-10-17T02:18:56.441Z,80.22
2022-10-17T02:21:22.537Z,80.26
2022-10-17T02:23:48.653Z,80.22
2022-10-17T02:26:14.746Z,80.33
2022-10-17T02:28:40.918Z,80.23
2022-10-17T02:31:07.060Z,80.16
2022-10-17T02:33:33.146Z,80.21
2022-10-17T02:35:59.245Z,80.30
2022-10-17T02:38:25.354Z,80.28
2022-10-17T02:40:51.446Z,80.24
2022-10-17T02:43:17.541Z,80.20
2022-10-17T02:45:43.651Z,80.17
2022-10-17T02:48:09.755Z,80.17
2022-10-17T02:50:35.839Z,80.33
2022-10-17T02:53:01.952Z,80.08
2022-10-17T02:55:28.052Z,80.20
2022-10-17T02:57:54.146Z,80.31
2022-10-17T03:00:20.251Z,80.32
2022-10-17T03:02:46.370Z,80.55
2022-10-17T03:05:12.457Z,80.39
2022-10-17T03:07:38.573Z,80.32
2022-10-17T03:10:04.668Z,80.21
2022-10-17T03:12:30.939Z,80.24
2022-10-17T03:14:57.251Z,80.38
2022-10-17T03:17:23.337Z,80.47
2022-10-17T03:19:49.430Z,80.40
2022-10-17T03:22:15.579Z,80.49
2022-10-17T03:24:41.686Z,80.39
2022-10-17T03:27:07.777Z,80.50
2022-10-17T03:29:33.888Z,80.50
2022-10-17T03:31:59.985Z,80.42
2022-10-17T03:34:26.073Z,80.32
2022-10-17T03:36:52.183Z,80.28
2022-10-17T03:39:18.281Z,80.34
2022-10-17T03:41:44.367Z,80.57
2022-10-17T03:44:10.464Z,80.43
2022-10-17T03:46:36.566Z,80.40
2022-10-17T03:49:02.656Z,80.26
2022-10-17T03:51:28.754Z,80.36
2022-10-17T03:53:54.850Z,80.41
2022-10-17T03:56:20.947Z,80.45
2022-10-17T03:58:47.039Z,80.34
2022-10-17T04:01:13.207Z,80.35
2022-10-17T04:03:39.375Z,80.18
2022-10-17T04:06:05.506Z,80.23
2022-10-17T04:08:31.604Z,80.21
2022-10-17T04:10:57.697Z,80.24
2022-10-17T04:13:23.818Z,80.33
2022-10-17T04:15:49.903Z,80.07
2022-10-17T04:18:16.007Z,80.19
2022-10-17T04:20:42.615Z,80.27
2022-10-17T04:23:08.696Z,80.12
2022-10-17T04:25:36.727Z,80.07
2022-10-17T04:28:03.494Z,80.04
2022-10-17T04:30:29.588Z,79.97
2022-10-17T04:32:55.674Z,80.09
2022-10-17T04:35:21.780Z,79.92
2022-10-17T04:37:47.886Z,79.96
2022-10-17T04:40:13.972Z,79.88
2022-10-17T04:42:40.056Z,79.75
2022-10-17T04:45:06.157Z,79.90
2022-10-17T04:47:32.254Z,79.57
2022-10-17T04:49:58.376Z,79.69
2022-10-17T04:52:24.476Z,79.64
2022-10-17T04:54:50.572Z,79.59
2022-10-17T04:57:16.681Z,79.40
2022-10-17T04:59:42.787Z,79.36
2022-10-17T05:02:08.905Z,79.27
2022-10-17T05:04:35.008Z,79.25
2022-10-17T05:07:01.102Z,79.25
2022-10-17T05:09:27.189Z,79.20
2022-10-17T05:11:53.315Z,79.01
2022-10-17T05:14:19.404Z,79.01
2022-10-17T05:16:45.491Z,78.89
2022-10-17T05:19:11.711Z,78.96
2022-10-17T05:21:37.847Z,78.91
2022-10-17T05:24:03.936Z,79.00
2022-10-17T05:26:30.101Z,78.86
2022-10-17T05:28:56.234Z,78.75
2022-10-17T05:31:22.365Z,78.80
2022-10-17T05:33:48.468Z,78.47
2022-10-17T05:36:14.591Z,78.76
2022-10-17T05:38:40.684Z,78.63
2022-10-17T05:41:06.786Z,78.61
2022-10-17T05:43:32.906Z,78.52
2022-10-17T05:45:59.034Z,78.58
2022-10-17T05:48:25.188Z,78.62
2022-10-17T05:50:51.286Z,78.59
2022-10-17T05:53:17.380Z,78.51
2022-10-17T05:55:43.508Z,78.47
2022-10-17T05:58:11.745Z,78.59
2022-10-17T06:00:43.867Z,78.47
2022-10-17T06:03:09.987Z,78.25
2022-10-17T06:05:36.067Z,78.45
2022-10-17T06:08:02.248Z,78.29
2022-10-17T06:10:28.423Z,78.37
2022-10-17T06:12:54.582Z,78.21
2022-10-17T06:15:20.679Z,78.18
2022-10-17T06:17:46.801Z,78.09
2022-10-17T06:20:12.986Z,78.03
2022-10-17T06:22:39.085Z,78.15
2022-10-17T06:25:05.187Z,78.02
2022-10-17T06:27:31.275Z,77.89
2022-10-17T06:29:57.383Z,77.92
2022-10-17T06:32:23.483Z,77.72
2022-10-17T06:34:49.607Z,77.77
2022-10-17T06:37:15.783Z,77.73
2022-10-17T06:39:41.892Z,77.60
2022-10-17T06:42:08.009Z,77.62
2022-10-17T06:44:34.093Z,77.77
2022-10-17T06:47:00.212Z,77.54
2022-10-17T06:49:26.295Z,77.53
2022-10-17T06:51:52.390Z,77.47
2022-10-17T06:54:18.562Z,77.33
2022-10-17T06:56:44.706Z,77.44
2022-10-17T06:59:10.799Z,77.32
2022-10-17T07:01:37.401Z,77.24
2022-10-17T07:04:03.603Z,77.09
2022-10-17T07:06:29.696Z,77.10
2022-10-17T07:08:55.958Z,77.05
2022-10-17T07:11:22.069Z,77.09
2022-10-17T07:13:48.163Z,76.94
2022-10-17T07:16:14.262Z,76.84
2022-10-17T07:18:40.352Z,76.84
2022-10-17T07:21:06.463Z,76.70
2022-10-17T07:23:32.590Z,76.59
2022-10-17T07:25:58.693Z,76.67
2022-10-17T07:28:24.843Z,76.62
2022-10-17T07:30:53.727Z,76.37
2022-10-17T07:33:20.692Z,76.49
2022-10-17T07:35:46.802Z,76.26
2022-10-17T07:38:12.918Z,76.26
2022-10-17T07:40:39.004Z,76.09
2022-10-17T07:43:05.100Z,76.08
2022-10-17T07:45:31.222Z,75.89
2022-10-17T07:47:57.320Z,75.81
2022-10-17T07:50:23.430Z,75.76
2022-10-17T07:52:49.536Z,75.73
2022-10-17T07:55:15.670Z,75.61
2022-10-17T07:57:41.759Z,75.60
2022-10-17T08:00:07.864Z,75.45
2022-10-17T08:02:33.941Z,75.34
2022-10-17T08:05:00.059Z,75.30
2022-10-17T08:07:29.280Z,75.14
2022-10-17T08:09:55.655Z,75.09
2022-10-17T08:12:21.792Z,74.95
2022-10-17T08:14:47.910Z,74.86
2022-10-17T08:17:13.997Z,74.80
2022-10-17T08:19:40.093Z,74.61
2022-10-17T08:22:06.559Z,74.54
2022-10-17T08:24:32.656Z,74.46
2022-10-17T08:26:58.769Z,74.23
2022-10-17T08:29:24.920Z,74.24
2022-10-17T08:31:54.115Z,74.02
2022-10-17T08:34:24.732Z,74.06
2022-10-17T08:36:51.380Z,73.91
2022-10-17T08:39:17.466Z,73.63
2022-10-17T08:41:43.567Z,73.58
2022-10-17T08:44:09.683Z,73.37
2022-10-17T08:46:35.816Z,73.36
2022-10-17T08:49:02.077Z,73.27
2022-10-17T08:51:28.191Z,73.25
2022-10-17T08:53:54.291Z,73.09
2022-10-17T08:56:25.155Z,72.96
2022-10-17T08:59:03.090Z,73.02
2022-10-17T09:01:29.192Z,72.86
2022-10-17T09:03:55.284Z,72.92
2022-10-17T09:06:21.394Z,72.81
2022-10-17T09:08:47.485Z,72.72
2022-10-17T09:11:13.590Z,72.79
2022-10-17T09:13:39.712Z,72.54
2022-10-17T09:16:05.809Z,72.57
2022-10-17T09:18:31.895Z,72.56
2022-10-17T09:20:58.011Z,72.33
2022-10-17T09:23:24.102Z,72.42
2022-10-17T09:25:50.253Z,72.16
2022-10-17T09:28:16.396Z,72.15
2022-10-17T09:30:46.462Z,72.24
2022-10-17T09:33:23.169Z,72.08
2022-10-17T09:35:58.962Z,71.92
2022-10-17T09:38:25.045Z,71.72
2022-10-17T09:40:56.144Z,71.65
2022-10-17T09:43:23.076Z,71.40
2022-10-17T09:45:49.159Z,71.51
2022-10-17T09:48:15.259Z,71.32
2022-10-17T09:50:41.368Z,71.12
2022-10-17T09:53:07.458Z,71.03
2022-10-17T09:55:33.566Z,70.89
2022-10-17T09:57:59.685Z,70.66
2022-10-17T10:00:25.866Z,70.53
2022-10-17T10:02:52.053Z,70.20
2022-10-17T10:05:18.148Z,70.14
2022-10-17T10:07:44.246Z,69.83
2022-10-17T10:10:10.363Z,69.53
2022-10-17T10:12:36.480Z,68.99
2022-10-17T10:15:02.567Z,68.63
2022-10-17T10:17:28.659Z,67.87
2022-10-17T10:19:54.773Z,67.33
2022-10-17T10:22:20.872Z,67.04
2022-10-17T10:24:46.958Z,66.96
2022-10-17T10:27:13.071Z,66.92
2022-10-17T10:29:39.153Z,66.61
2022-10-17T10:32:05.254Z,66.65
2022-10-17T10:34:31.387Z,66.39
2022-10-17T10:36:57.526Z,66.33
2022-10-17T10:39:23.617Z,66.27
2022-10-17T10:41:49.839Z,66.17
2022-10-17T10:44:15.940Z,66.26
2022-10-17T10:46:42.047Z,66.18
2022-10-17T10:49:08.313Z,66.14
2022-10-17T10:51:34.395Z,65.99
2022-10-17T10:54:00.495Z,66.09
2022-10-17T10:56:26.618Z,65.82
2022-10-17T10:58:52.724Z,65.91
2022-10-17T11:01:18.939Z,65.68
2022-10-17T11:03:45.098Z,65.76
2022-10-17T11:06:11.197Z,65.76
2022-10-17T11:08:37.276Z,65.53
2022-10-17T11:11:03.390Z,65.38
2022-10-17T11:13:29.489Z,65.44
2022-10-17T11:15:55.577Z,65.43
2022-10-17T11:18:21.687Z,65.42
2022-10-17T11:20:47.776Z,65.48
2022-10-17T11:23:13.865Z,65.51
2022-10-17T11:25:39.966Z,65.52
2022-10-17T11:28:06.067Z,65.54
2022-10-17T11:30:32.197Z,65.55
2022-10-17T11:32:58.346Z,65.49
2022-10-17T11:35:24.455Z,65.51
2022-10-17T11:37:50.551Z,65.38
2022-10-17T11:40:19.216Z,65.37
2022-10-17T11:42:48.144Z,65.44
2022-10-17T11:45:14.232Z,65.36
2022-10-17T11:47:40.694Z,65.48
2022-10-17T11:52:56.442Z,65.58
2022-10-17T11:55:23.148Z,65.68
2022-10-17T11:57:49.244Z,65.69
2022-10-17T12:00:15.506Z,65.57
2022-10-17T12:02:41.621Z,65.65
2022-10-17T12:05:07.730Z,65.77
2022-10-17T12:07:34.365Z,65.91
2022-10-17T12:10:00.606Z,65.96
2022-10-17T12:12:27.081Z,66.10
2022-10-17T12:14:53.456Z,66.07
2022-10-17T12:17:19.552Z,66.09
2022-10-17T12:19:45.655Z,66.25
2022-10-17T12:22:12.058Z,66.09
2022-10-17T12:24:38.176Z,66.06
2022-10-17T12:27:04.268Z,65.97
2022-10-17T12:29:30.377Z,66.20
2022-10-17T12:31:57.085Z,66.01
2022-10-17T12:34:23.171Z,65.98
2022-10-17T12:36:49.567Z,66.05
2022-10-17T12:39:15.662Z,65.93
2022-10-17T12:41:41.765Z,65.97
2022-10-17T12:44:07.861Z,65.98
2022-10-17T12:46:33.963Z,66.03
2022-10-17T12:49:00.067Z,65.99
2022-10-17T12:51:41.455Z,66.04
2022-10-17T12:54:07.554Z,66.12
2022-10-17T12:56:33.684Z,65.92
2022-10-17T12:58:59.794Z,65.77
2022-10-17T13:01:26.087Z,65.73
2022-10-17T13:03:52.290Z,65.86
2022-10-17T13:06:18.408Z,65.77
2022-10-17T13:08:44.505Z,65.72
2022-10-17T13:11:10.621Z,65.58
2022-10-17T13:13:36.727Z,65.53
2022-10-17T13:16:02.832Z,65.56
2022-10-17T13:18:28.926Z,65.61
2022-10-17T13:20:55.015Z,65.38
2022-10-17T13:23:21.100Z,65.50
2022-10-17T13:25:47.205Z,65.46
2022-10-17T13:28:13.289Z,65.20
2022-10-17T13:30:39.385Z,65.30
2022-10-17T13:33:05.488Z,65.12
2022-10-17T13:35:55.357Z,64.78
2022-10-17T13:40:50.488Z,64.79
2022-10-17T13:43:16.857Z,65.03
2022-10-17T13:45:43.007Z,64.93
2022-10-17T13:48:09.104Z,65.05
2022-10-17T13:50:44.280Z,65.12
2022-10-17T13:53:11.080Z,65.36
2022-10-17T13:55:37.169Z,65.28
2022-10-17T13:58:03.267Z,65.37
2022-10-17T14:00:29.412Z,65.64
2022-10-17T14:02:55.508Z,65.73
2022-10-17T14:05:21.608Z,65.77
2022-10-17T14:08:10.094Z,65.91
2022-10-17T14:10:33.849Z,66.18
2022-10-17T14:12:59.964Z,66.11
2022-10-17T14:15:26.063Z,66.19
2022-10-17T14:17:52.159Z,66.21
2022-10-17T14:23:22.086Z,66.60
2022-10-17T14:25:49.174Z,66.69
2022-10-17T14:28:15.297Z,66.89
2022-10-17T14:30:57.763Z,66.85
2022-10-17T14:33:24.085Z,67.09
2022-10-17T14:35:50.183Z,66.98
2022-10-17T14:38:16.274Z,67.34
2022-10-17T14:40:42.399Z,67.25
2022-10-17T14:43:08.561Z,67.35
2022-10-17T14:45:34.664Z,67.40
2022-10-17T14:48:01.137Z,67.37
2022-10-17T14:50:27.233Z,67.52
2022-10-17T14:52:53.337Z,67.43
2022-10-17T14:55:19.947Z,67.37
2022-10-17T14:57:46.057Z,67.33
2022-10-17T15:00:12.232Z,67.47
2022-10-17T15:02:38.402Z,67.58
2022-10-17T15:05:07.315Z,67.59
2022-10-17T15:07:35.611Z,67.75
2022-10-17T15:10:01.729Z,67.78
2022-10-17T15:12:28.070Z,67.86
2022-10-17T15:14:54.416Z,67.93
2022-10-17T15:17:20.527Z,68.13
2022-10-17T15:19:46.686Z,68.38
2022-10-17T15:22:12.770Z,68.35
2022-10-17T15:24:38.890Z,68.70
2022-10-17T15:27:04.977Z,68.74
2022-10-17T15:29:31.133Z,68.80
2022-10-17T15:31:57.231Z,68.84
2022-10-17T15:34:23.328Z,68.90
2022-10-17T15:36:49.453Z,68.83
2022-10-17T15:39:15.570Z,68.91
2022-10-17T15:41:41.677Z,68.77
2022-10-17T15:44:07.768Z,68.88
2022-10-17T15:46:33.925Z,69.05
2022-10-17T15:49:00.034Z,69.15
2022-10-17T15:51:26.132Z,69.22
2022-10-17T15:53:52.241Z,69.32
2022-10-17T15:56:18.335Z,69.38
2022-10-17T15:58:44.431Z,69.52
2022-10-17T16:01:10.658Z,69.61
2022-10-17T16:03:36.760Z,69.79
2022-10-17T16:06:02.866Z,69.94
2022-10-17T16:08:28.987Z,70.04
2022-10-17T16:10:55.099Z,70.04
2022-10-17T16:13:21.197Z,70.43
2022-10-17T16:15:47.318Z,70.70
2022-10-17T16:18:13.419Z,70.88
2022-10-17T16:20:39.522Z,71.30
2022-10-17T16:23:05.655Z,71.53
2022-10-17T16:25:31.745Z,71.93
2022-10-17T16:27:57.837Z,72.29
2022-10-17T16:30:23.981Z,72.52
2022-10-17T16:32:50.067Z,73.04
2022-10-17T16:35:16.152Z,73.24
2022-10-17T16:37:42.271Z,73.75
2022-10-17T16:40:08.361Z,74.17
2022-10-17T16:42:34.461Z,74.30
2022-10-17T16:45:00.574Z,74.53
2022-10-17T16:47:26.662Z,74.62
2022-10-17T16:49:52.769Z,74.91
2022-10-17T16:52:18.871Z,74.91
2022-10-17T16:54:44.978Z,75.23
2022-10-17T16:57:11.069Z,75.48
2022-10-17T16:59:37.176Z,75.82
2022-10-17T17:02:03.295Z,76.28
2022-10-17T17:04:29.387Z,76.59
2022-10-17T17:06:55.545Z,77.53
2022-10-17T17:09:21.646Z,78.55
2022-10-17T17:11:47.742Z,79.48
2022-10-17T17:14:13.837Z,80.13
2022-10-17T17:16:39.916Z,80.82
2022-10-17T17:19:06.027Z,81.17
2022-10-17T17:21:32.132Z,81.69
2022-10-17T17:23:58.240Z,81.83
2022-10-17T17:26:24.338Z,82.12
2022-10-17T17:28:50.481Z,82.24
2022-10-17T17:31:19.505Z,82.30
2022-10-17T17:33:45.651Z,82.42
2022-10-17T17:36:11.810Z,82.55
2022-10-17T17:38:37.891Z,82.72
2022-10-17T17:41:04.003Z,82.85
2022-10-17T17:43:30.133Z,82.85
2022-10-17T17:45:56.221Z,82.85
2022-10-17T17:48:22.307Z,82.99
2022-10-17T17:50:49.449Z,83.11
2022-10-17T17:53:15.524Z,83.41
2022-10-17T17:55:41.645Z,83.52
2022-10-17T17:58:07.771Z,83.70
2022-10-17T18:00:33.892Z,83.81
2022-10-17T18:02:59.986Z,83.75
2022-10-17T18:05:26.094Z,83.98
2022-10-17T18:07:52.187Z,83.98
2022-10-17T18:10:18.402Z,83.97
2022-10-17T18:12:44.527Z,84.06
2022-10-17T18:15:10.671Z,84.00
2022-10-17T18:17:36.764Z,83.97
2022-10-17T18:20:02.877Z,84.03
2022-10-17T18:22:29.194Z,84.09
2022-10-17T18:24:55.557Z,84.08
2022-10-17T18:27:21.695Z,84.17
2022-10-17T18:29:47.802Z,84.03
2022-10-17T18:32:13.910Z,83.92
2022-10-17T18:34:40.021Z,83.89
2022-10-17T18:37:06.172Z,83.93
2022-10-17T18:39:32.255Z,83.94
2022-10-17T18:41:58.394Z,83.78
2022-10-17T18:44:24.492Z,83.74
2022-10-17T18:46:50.596Z,83.83
2022-10-17T18:49:16.713Z,83.67
2022-10-17T18:51:42.796Z,83.66
2022-10-17T18:54:08.877Z,83.68
2022-10-17T18:56:35.001Z,83.69
2022-10-17T18:59:01.103Z,83.60
2022-10-17T19:01:27.286Z,83.55
2022-10-17T19:03:53.425Z,83.56
2022-10-17T19:06:19.517Z,83.61
2022-10-17T19:08:45.617Z,83.67
2022-10-17T19:11:12.252Z,83.60
2022-10-17T19:13:38.373Z,83.52
2022-10-17T19:16:04.524Z,83.43
2022-10-17T19:18:30.653Z,83.50
2022-10-17T19:20:56.741Z,83.55
2022-10-17T19:23:22.846Z,83.56
2022-10-17T19:25:48.962Z,83.67
2022-10-17T19:28:15.060Z,83.58
2022-10-17T19:30:41.151Z,83.65
2022-10-17T19:33:07.286Z,83.79
2022-10-17T19:35:33.390Z,83.65
2022-10-17T19:37:59.491Z,83.60
2022-10-17T19:40:25.602Z,83.57
2022-10-17T19:42:51.684Z,83.68
2022-10-17T19:45:17.784Z,83.63
2022-10-17T19:47:43.902Z,83.68
2022-10-17T19:50:09.985Z,83.66
2022-10-17T19:52:36.098Z,83.60
2022-10-17T19:55:02.290Z,83.68
2022-10-17T19:57:28.407Z,83.59
2022-10-17T19:59:56.035Z,83.49
2022-10-17T20:02:22.359Z,83.52
2022-10-17T20:04:54.480Z,83.59
2022-10-17T20:07:26.174Z,83.35
2022-10-17T20:09:52.262Z,83.40
2022-10-17T20:12:18.371Z,83.49
2022-10-17T20:14:44.773Z,83.48
2022-10-17T20:17:10.862Z,83.28
2022-10-17T20:19:36.940Z,83.34
2022-10-17T20:22:03.072Z,83.22
2022-10-17T20:24:29.165Z,83.24
2022-10-17T20:26:55.249Z,83.07
2022-10-17T20:29:21.365Z,83.12
2022-10-17T20:31:47.461Z,83.02
2022-10-17T20:34:13.562Z,82.76
2022-10-17T20:36:39.683Z,82.68
2022-10-17T20:39:05.789Z,82.42
2022-10-17T20:41:31.894Z,82.40
2022-10-17T20:43:57.998Z,82.27
2022-10-17T20:46:36.263Z,82.06
2022-10-17T20:49:03.243Z,82.04
2022-10-17T20:51:29.350Z,81.98
2022-10-17T20:56:26.989Z,81.81
2022-10-17T20:58:53.072Z,81.94
2022-10-17T21:01:19.214Z,81.93
2022-10-17T21:03:46.632Z,81.96
2022-10-17T21:06:12.916Z,81.87
2022-10-17T21:08:39.002Z,81.83
2022-10-17T21:11:05.115Z,81.92
2022-10-17T21:13:31.211Z,81.94
2022-10-17T21:15:57.302Z,81.88
2022-10-17T21:18:23.476Z,81.79
2022-10-17T21:20:49.572Z,81.98
2022-10-17T21:23:15.671Z,81.96
2022-10-17T21:25:41.777Z,82.01
2022-10-17T21:28:07.877Z,81.93
2022-10-17T21:30:33.975Z,82.05
2022-10-17T21:33:00.117Z,81.87
2022-10-17T21:35:26.226Z,81.99
2022-10-17T21:37:52.303Z,81.99
2022-10-17T21:40:18.441Z,82.04
2022-10-17T21:42:44.556Z,82.11
2022-10-17T21:45:15.712Z,82.35
2022-10-17T21:48:11.154Z,82.50
2022-10-17T21:50:32.321Z,82.59
2022-10-17T21:52:58.431Z,82.56
2022-10-17T21:55:24.530Z,82.66
2022-10-17T21:57:50.622Z,82.87
2022-10-17T22:00:16.726Z,82.67
2022-10-17T22:02:42.848Z,82.72
2022-10-17T22:05:08.940Z,82.84
2022-10-17T22:07:35.061Z,82.74
2022-10-17T22:10:01.147Z,82.64
2022-10-17T22:12:27.329Z,82.62
2022-10-17T22:14:53.546Z,82.63
2022-10-17T22:17:19.654Z,82.70
2022-10-17T22:19:45.765Z,82.89
2022-10-17T22:22:11.895Z,82.73
2022-10-17T22:24:38.038Z,82.58
2022-10-17T22:27:04.126Z,82.76
2022-10-17T22:29:30.240Z,83.00
2022-10-17T22:31:56.333Z,82.78
2022-10-17T22:34:22.417Z,82.76
2022-10-17T22:36:48.541Z,82.89
2022-10-17T22:39:14.632Z,82.63
2022-10-17T22:41:40.719Z,82.59
2022-10-17T22:44:06.834Z,82.59
2022-10-17T22:46:32.932Z,82.53
2022-10-17T22:48:59.020Z,82.53
2022-10-17T22:51:25.169Z,82.70
2022-10-17T22:53:51.270Z,82.67
2022-10-17T22:56:17.349Z,82.52
2022-10-17T22:58:43.982Z,82.56
2022-10-17T23:01:10.265Z,82.59
2022-10-17T23:03:36.398Z,82.62
2022-10-17T23:06:02.522Z,82.44
2022-10-17T23:08:28.630Z,82.52
2022-10-17T23:10:54.744Z,82.47
2022-10-17T23:13:20.850Z,82.46
2022-10-17T23:15:46.940Z,82.55
2022-10-17T23:18:13.029Z,82.52
2022-10-17T23:20:39.493Z,82.57
2022-10-17T23:23:05.601Z,82.57
2022-10-17T23:25:31.713Z,82.64
2022-10-17T23:27:57.834Z,82.69
2022-10-17T23:30:23.925Z,82.70
2022-10-17T23:32:50.024Z,82.55
2022-10-17T23:35:16.137Z,82.75
2022-10-17T23:37:42.239Z,82.72
2022-10-17T23:40:08.338Z,82.73
2022-10-17T23:42:34.449Z,82.78
2022-10-17T23:45:00.559Z,82.97
2022-10-17T23:47:26.687Z,83.07
2022-10-17T23:49:52.797Z,83.02
2022-10-17T23:52:18.895Z,83.17
2022-10-17T23:54:45.005Z,83.10
2022-10-17T23:57:11.113Z,82.98
2022-10-17T23:59:37.269Z,83.08
